• Join FlightAware (Why Join?)
  • Login
  • US Flag 
09:56PM EST


 

Airport Tracker/Info


-or-


 

Live Flight TrackerFlight Track Log ✈ UAL4457 ✈ 25-Apr-2013 ✈ KLEX - KIAH

Flight Track Log - Related Links

Times and Time Zones

All times are in EDT time to prevent confusion due to time zone crossing. See the UAL4457 flight status page for this flight to view local times or setup timezone preferences in your user account.

Time Position Orientation Groundspeed Altitude Reporting Facility
EDT Latitude Longitude Course Direction KTS MPH feet Rate Location/Type
05:35PM 37.9656 -84.7003 232° Southwest 208 239 5,600  Level Indianapolis Center
05:36PM 37.9069 -84.9221 241° Southwest  Level FlightAware Approximate
05:36PM 37.9581 -84.7853 264° West 239 275 8,400  Level Indianapolis Center
05:37PM 37.8602 -85.0270 241° Southwest  Level FlightAware Approximate
05:37PM 37.9492 -84.8864 264° West 248 285 10,800  Level Indianapolis Center
05:38PM 37.8166 -85.1335 247° West  Level FlightAware Approximate
05:38PM 37.9364 -84.9950 262° West 297 342 12,200  Level Indianapolis Center
05:39PM 37.7750 -85.2521 241° Southwest  Level FlightAware Approximate
05:39PM 37.9122 -85.1006 254° West 314 361 14,300  Level Indianapolis Center
05:40PM 37.8731 -85.1936 242° Southwest 321 369 16,500 1,920 Climbing Indianapolis Center
05:41PM 37.8306 -85.2986 243° Southwest 313 360 18,300 1,620 Climbing Indianapolis Center
05:42PM 37.7906 -85.3986 243° Southwest 317 365 19,900 1,740 Climbing Indianapolis Center
05:43PM 37.7397 -85.5181 242° Southwest 329 379 21,900 1,800 Climbing Indianapolis Center
05:44PM 37.7000 -85.6172 243° Southwest 328 377 23,700 1,740 Climbing Indianapolis Center
05:45PM 37.6564 -85.7206 242° Southwest 329 379 25,500 1,680 Climbing Indianapolis Center
05:46PM 37.6133 -85.8228 242° Southwest 329 379 27,200 1,740 Climbing Indianapolis Center
05:47PM 37.5717 -85.9206 242° Southwest 318 366 29,200 1,800 Climbing Indianapolis Center
05:48PM 37.5319 -86.0167 242° Southwest 302 348 31,000 1,500 Climbing Indianapolis Center
05:49PM 37.4864 -86.1247 242° Southwest 298 343 32,400 1,260 Climbing Indianapolis Center
05:50PM 37.4469 -86.2167 242° Southwest 298 343 33,700 1,200 Climbing Indianapolis Center
05:51PM 37.4211 -86.2806 243° Southwest 311 358 34,600 1,080 Climbing Memphis Center
05:52PM 37.3825 -86.3714 242° Southwest 311 358 35,700 1,020 Climbing Memphis Center
05:52PM 37.3703 -86.3992 241° Southwest 292 336 36,000 300 Climbing Indianapolis Center
05:53PM 37.3436 -86.4594 241° Southwest 306 352 36,000  Level Memphis Center
05:54PM 37.3008 -86.5606 242° Southwest 315 362 36,000  Level Memphis Center
05:55PM 37.2581 -86.6617 242° Southwest 334 384 36,000  Level Memphis Center
05:56PM 37.2092 -86.7733 241° Southwest 355 409 36,000  Level Memphis Center
05:57PM 37.1567 -86.8981 242° Southwest 367 422 36,000  Level Memphis Center
05:58PM 37.1075 -87.0119 242° Southwest 372 428 36,000  Level Memphis Center
05:59PM 37.0606 -87.1206 242° Southwest 372 428 36,000  Level Memphis Center
06:00PM 37.0131 -87.2264 241° Southwest 364 419 36,000  Level Memphis Center
06:01PM 36.9658 -87.3372 242° Southwest 364 419 36,000  Level Memphis Center
06:02PM 36.9167 -87.4506 242° Southwest 358 412 36,000  Level Memphis Center
06:03PM 36.8669 -87.5614 241° Southwest 363 418 36,000  Level Memphis Center
06:04PM 36.8153 -87.6719 240° Southwest 363 418 36,000  Level Memphis Center
06:05PM 36.7675 -87.7797 241° Southwest 363 418 36,000  Level Memphis Center
06:06PM 36.7178 -87.8928 241° Southwest 363 418 36,000  Level Memphis Center
06:07PM 36.6697 -88.0028 241° Southwest 362 417 36,000  Level Memphis Center
06:08PM 36.6197 -88.1156 241° Southwest 362 417 36,000  Level Memphis Center
06:09PM 36.5797 -88.2122 243° Southwest 362 417 36,000  Level Memphis Center
06:10PM 36.5275 -88.3247 240° Southwest 362 417 36,000  Level Memphis Center
06:11PM 36.4772 -88.4317 240° Southwest 362 417 36,000  Level Memphis Center
06:12PM 36.4267 -88.5411 240° Southwest 362 417 36,000  Level Memphis Center
06:13PM 36.3781 -88.6481 241° Southwest 362 417 36,000  Level Memphis Center
06:14PM 36.3294 -88.7519 240° Southwest 362 417 36,000  Level Memphis Center
06:15PM 36.2789 -88.8586 240° Southwest 356 410 36,000  Level Memphis Center
06:16PM 36.2300 -88.9650 240° Southwest 356 410 36,000  Level Memphis Center
06:17PM 36.1789 -89.0686 239° Southwest 356 410 36,000  Level Memphis Center
06:18PM 36.1239 -89.1903 241° Southwest 361 415 36,000  Level Memphis Center
06:19PM 36.0747 -89.2989 241° Southwest 361 415 36,000  Level Memphis Center
06:20PM 36.0236 -89.4075 240° Southwest 361 415 36,000  Level Memphis Center
06:21PM 35.9764 -89.5106 241° Southwest 361 415 36,000  Level Memphis Center
06:22PM 35.9269 -89.6161 240° Southwest 355 409 36,000  Level Memphis Center
06:23PM 35.8797 -89.7164 240° Southwest 355 409 36,000  Level Memphis Center
06:24PM 35.8300 -89.8219 240° Southwest 355 409 36,000  Level Memphis Center
06:25PM 35.7806 -89.9272 240° Southwest 355 409 36,000  Level Memphis Center
06:26PM 35.7308 -90.0347 240° Southwest 360 414 36,000  Level Memphis Center
06:27PM 35.6872 -90.1322 241° Southwest 366 421 36,000  Level Memphis Center
06:28PM 35.6311 -90.2522 240° Southwest 366 421 36,000  Level Memphis Center
06:29PM 35.5789 -90.3622 240° Southwest 361 415 36,000  Level Memphis Center
06:30PM 35.5247 -90.4692 238° Southwest 368 423 36,000  Level Memphis Center
06:31PM 35.4744 -90.5789 241° Southwest 373 429 36,000  Level Memphis Center
06:32PM 35.4200 -90.6883 239° Southwest 373 429 36,000  Level Memphis Center
06:33PM 35.3675 -90.7950 239° Southwest 379 436 36,000  Level Memphis Center
06:34PM 35.3150 -90.9067 240° Southwest 385 443 36,000  Level Memphis Center
06:35PM 35.2622 -91.0131 239° Southwest 385 443 36,000  Level Memphis Center
06:36PM 35.2094 -91.1194 239° Southwest 374 430 36,000  Level Memphis Center
06:37PM 35.1544 -91.2256 238° Southwest 374 430 36,000  Level Memphis Center
06:38PM 35.1036 -91.3367 241° Southwest 379 436 36,000  Level Memphis Center
06:39PM 35.0486 -91.4378 236° Southwest 373 429 36,000  Level Memphis Center
06:40PM 34.9933 -91.5433 237° Southwest 368 423 36,000  Level Memphis Center
06:41PM 34.9444 -91.6492 241° Southwest 368 423 36,000  Level Memphis Center
06:42PM 34.8911 -91.7547 238° Southwest 368 423 36,000  Level Memphis Center
06:43PM 34.8397 -91.8575 239° Southwest 368 423 36,000  Level Memphis Center
06:44PM 34.7864 -91.9653 239° Southwest 368 423 36,000  Level Memphis Center
06:45PM 34.7328 -92.0706 238° Southwest 368 423 36,000  Level Memphis Center
06:46PM 34.6689 -92.1703 232° Southwest 374 430 36,000  Level Memphis Center
06:47PM 34.5556 -92.2031 193° South 380 437 36,000  Level Memphis Center
06:48PM 34.4364 -92.2258 189° South 419 482 36,000  Level Memphis Center
06:49PM 34.3128 -92.2481 188° South 425 489 36,000  Level Memphis Center
06:50PM 34.1958 -92.2683 188° South 431 496 36,000 -120 Level Memphis Center
06:51PM 34.0786 -92.2931 190° South 431 496 35,800 -720 Descending Memphis Center
06:53PM 33.8725 -92.3356 190° South 418 481 34,100 -660 Descending Fort Worth Center
06:54PM 33.7481 -92.3553 188° South 441 507 34,000 -60 Descending Fort Worth Center
06:55PM 33.6258 -92.3772 189° South 448 516 34,000  Level Fort Worth Center
06:56PM 33.5161 -92.3983 189° South 448 516 34,000  Level Fort Worth Center
06:57PM 33.3939 -92.4203 189° South 448 516 34,000  Level Fort Worth Center
06:58PM 33.2694 -92.4422 188° South 448 516 34,000  Level Fort Worth Center
06:59PM 33.1492 -92.4639 189° South 442 509 34,000  Level Fort Worth Center
07:00PM 33.0250 -92.4856 188° South 442 509 34,000  Level Fort Worth Center
07:01PM 32.9025 -92.5072 188° South 447 514 34,000  Level Fort Worth Center
07:03PM 32.6481 -92.5558 189° South 445 512 34,000  Level Houston Center
07:04PM 32.5233 -92.5767 188° South 450 518 34,000  Level Houston Center
07:05PM 32.4000 -92.5975 188° South 450 518 34,000  Level Houston Center
07:06PM 32.2775 -92.6197 189° South 446 513 34,000  Level Houston Center
07:07PM 32.1553 -92.6414 189° South 446 513 34,000  Level Houston Center
07:08PM 32.0344 -92.6653 190° South 441 507 34,000  Level Houston Center
07:09PM 31.9094 -92.7383 206° Southwest 427 491 34,000  Level Houston Center
07:10PM 31.8228 -92.8239 220° Southwest 411 473 34,000  Level Houston Center
07:11PM 31.7350 -92.9092 220° Southwest 411 473 34,000  Level Houston Center
07:12PM 31.6467 -92.9942 219° Southwest 411 473 34,000  Level Houston Center
07:13PM 31.5589 -93.0794 220° Southwest 412 474 34,000  Level Houston Center
07:14PM 31.4522 -93.1797 219° Southwest 412 474 34,000  Level Houston Center
07:15PM 31.3642 -93.2642 219° Southwest 410 472 34,000 -360 Level Houston Center
07:16PM 31.2792 -93.3458 219° Southwest 413 475 33,300 -1,200 Descending Houston Center
07:17PM 31.1861 -93.4333 219° Southwest 414 476 31,600 -1,560 Descending Houston Center
07:18PM 31.0958 -93.5194 219° Southwest 420 483 30,100 -1,500 Descending Houston Center
07:19PM 31.0039 -93.6075 219° Southwest 428 493 28,600 -1,680 Descending Houston Center
07:20PM 30.8919 -93.7131 219° Southwest 434 499 26,700 -1,680 Descending Houston Center
07:21PM 30.7978 -93.8017 219° Southwest 438 504 25,100 -1,800 Descending Houston Center
07:22PM 30.7058 -93.8889 219° Southwest 432 497 23,100 -1,980 Descending Houston Center
07:23PM 30.6125 -93.9753 219° Southwest 431 496 21,100 -2,040 Descending Houston Center
07:25PM 30.5233 -94.0594 219° Southwest 420 483 19,000 -2,160 Descending Houston Center
07:26PM 30.4206 -94.1564 219° Southwest 403 464 16,700 -2,400 Descending Houston Center
07:26PM 30.3883 -94.1844 217° Southwest 391 450 15,800 -2,460 Descending Houston Center
07:27PM 30.3361 -94.2367 221° Southwest 396 456 14,200 -2,520 Descending Houston Center
07:27PM 30.2925 -94.2747 217° Southwest 392 451 13,000 -1,980 Descending Houston Center
07:28PM 30.2536 -94.3111 219° Southwest 382 440 12,200 -1,020 Descending Houston Center
07:28PM 30.2214 -94.3422 220° Southwest 322 371 12,000 -240 Descending Houston Center
07:29PM 30.1953 -94.3844 234° Southwest 328 377 12,000 -420 Level Houston Center
07:29PM 30.1844 -94.4364 256° West 320 368 11,600 -1,020 Descending Houston Center
07:30PM 30.1769 -94.4919 261° West 316 364 11,000 -1,140 Descending Houston Center
07:30PM 30.1689 -94.5353 258° West 283 326 10,500 -1,080 Descending Houston Center
07:31PM 30.1608 -94.5803 258° West 286 329 9,900 -1,080 Descending Houston Center
07:31PM 30.1536 -94.6169 257° West 280 322 9,500 -960 Descending Houston Center
07:32PM 30.1453 -94.6689 260° West 284 327 8,900 -1,020 Descending Houston Center
07:32PM 30.1378 -94.7133 259° West 286 329 8,400 -1,200 Descending Houston Center
07:33PM 30.1278 -94.7758 260° West 283 326 7,700 -1,140 Descending Houston Center
07:33PM 30.1211 -94.8025 254° West 282 325 7,300 -1,080 Descending Houston Center
07:34PM 30.1119 -94.8644 260° West 285 328 6,600 -1,020 Descending Houston Center
07:34PM 30.1047 -94.8964 255° West 279 321 6,300 -600 Descending Houston Center
07:35PM 30.1061 -94.9508 272° West 274 315 6,000 -300 Descending Houston Center
07:35PM 30.1047 -94.9833 267° West 281 323 6,000  Level Houston Center
07:36PM 30.1064 -95.0397 272° West 279 321 6,000 60 Level Houston Center
07:36PM 30.1047 -95.0728 267° West 276 318 6,100  Climbing Houston Center
07:37PM 30.1069 -95.1278 273° West 277 319 6,000 -120 Descending Houston Center
07:37PM 30.1067 -95.1617 269° West 278 320 6,000  Level Houston Center
07:38PM 30.1078 -95.2328 271° West 274 315 6,000  Level Houston Center
07:39PM 30.1075 -95.3075 270° West 245 282 6,000 -120 Level Houston Center
07:39PM 30.1056 -95.3333 265° West 228 262 5,900 -1,080 Descending Houston Center
07:40PM 30.1075 -95.3817 273° West 235 270 4,900 -1,620 Descending Houston Center
07:40PM 30.1061 -95.4058 266° West 233 268 4,300 -1,740 Descending Houston Center
07:41PM 30.1069 -95.4561 271° West 234 269 3,100 -1,320 Descending Houston Center
07:41PM 30.0872 -95.4756 220° Southwest 222 255 3,000 -240 Descending Houston Center
07:42PM 30.0553 -95.4742 178° South 221 254 2,900 -600 Descending Houston Center
07:43PM 29.9969 -95.4528 162° South 146 168 1,900 -780 Descending Houston Center
07:44PM 29.9925 -95.4161 98° East 156 180 1,400 -600 Descending Houston Center